sensor_id;sensor_type;location;lat;lon;timestamp;pressure;altitude;pressure_sealevel;temperature;humidity
60871;BME280;46714;50.118;14.462;2023-12-29T00:02:19;98793.22;;;7.80;95.79
60871;BME280;46714;50.118;14.462;2023-12-29T00:04:45;98787.59;;;7.82;95.15
60871;BME280;46714;50.118;14.462;2023-12-29T00:07:10;98772.78;;;7.84;95.02
60871;BME280;46714;50.118;14.462;2023-12-29T00:09:36;98774.06;;;7.88;94.46
60871;BME280;46714;50.118;14.462;2023-12-29T00:12:05;98777.41;;;7.90;94.42
60871;BME280;46714;50.118;14.462;2023-12-29T00:14:31;98785.53;;;7.90;93.92
60871;BME280;46714;50.118;14.462;2023-12-29T00:16:57;98769.28;;;7.90;94.31
60871;BME280;46714;50.118;14.462;2023-12-29T00:19:22;98795.13;;;7.93;94.06
60871;BME280;46714;50.118;14.462;2023-12-29T00:21:48;98799.69;;;7.92;93.73
60871;BME280;46714;50.118;14.462;2023-12-29T00:24:13;98792.81;;;7.90;94.11
60871;BME280;46714;50.118;14.462;2023-12-29T00:26:38;98790.94;;;7.90;93.99
60871;BME280;46714;50.118;14.462;2023-12-29T00:29:04;98793.03;;;7.95;93.13
60871;BME280;46714;50.118;14.462;2023-12-29T00:31:31;98789.28;;;7.96;92.29
60871;BME280;46714;50.118;14.462;2023-12-29T00:33:57;98791.78;;;7.97;92.72
60871;BME280;46714;50.118;14.462;2023-12-29T00:36:22;98789.91;;;7.98;92.02
60871;BME280;46714;50.118;14.462;2023-12-29T00:38:48;98792.63;;;7.98;92.57
60871;BME280;46714;50.118;14.462;2023-12-29T00:41:14;98793.44;;;7.98;92.07
60871;BME280;46714;50.118;14.462;2023-12-29T00:43:39;98798.03;;;7.98;91.88
60871;BME280;46714;50.118;14.462;2023-12-29T00:46:05;98804.91;;;8.01;92.27
60871;BME280;46714;50.118;14.462;2023-12-29T00:48:30;98808.25;;;8.03;92.39
60871;BME280;46714;50.118;14.462;2023-12-29T00:50:56;98808.06;;;8.04;92.48
60871;BME280;46714;50.118;14.462;2023-12-29T00:53:22;98796.16;;;8.05;92.24
60871;BME280;46714;50.118;14.462;2023-12-29T00:55:47;98797.81;;;8.06;92.49
60871;BME280;46714;50.118;14.462;2023-12-29T00:58:13;98795.53;;;8.10;92.72
60871;BME280;46714;50.118;14.462;2023-12-29T01:00:38;98795.53;;;8.10;92.16
60871;BME280;46714;50.118;14.462;2023-12-29T01:03:04;98802.41;;;8.12;92.59
60871;BME280;46714;50.118;14.462;2023-12-29T01:05:29;98803.25;;;8.13;92.28
60871;BME280;46714;50.118;14.462;2023-12-29T01:07:55;98789.50;;;8.14;92.17
60871;BME280;46714;50.118;14.462;2023-12-29T01:10:20;98802.03;;;8.15;93.25
60871;BME280;46714;50.118;14.462;2023-12-29T01:12:46;98798.44;;;8.15;92.50
60871;BME280;46714;50.118;14.462;2023-12-29T01:15:12;98791.19;;;8.15;93.02
60871;BME280;46714;50.118;14.462;2023-12-29T01:17:38;98792.81;;;8.16;93.38
60871;BME280;46714;50.118;14.462;2023-12-29T01:20:03;98792.00;;;8.16;93.57
60871;BME280;46714;50.118;14.462;2023-12-29T01:22:29;98786.59;;;8.16;93.44
60871;BME280;46714;50.118;14.462;2023-12-29T01:24:54;98793.47;;;8.18;93.43
60871;BME280;46714;50.118;14.462;2023-12-29T01:27:20;98791.78;;;8.17;93.83
60871;BME280;46714;50.118;14.462;2023-12-29T01:29:45;98788.03;;;8.18;94.16
60871;BME280;46714;50.118;14.462;2023-12-29T01:32:11;98791.56;;;8.19;94.11
60871;BME280;46714;50.118;14.462;2023-12-29T01:34:36;98788.44;;;8.22;94.61
60871;BME280;46714;50.118;14.462;2023-12-29T01:37:05;98798.25;;;8.23;94.86
60871;BME280;46714;50.118;14.462;2023-12-29T01:39:30;98798.06;;;8.25;94.61
60871;BME280;46714;50.118;14.462;2023-12-29T01:41:56;98789.28;;;8.23;94.27
60871;BME280;46714;50.118;14.462;2023-12-29T01:44:21;98787.84;;;8.20;95.08
60871;BME280;46714;50.118;14.462;2023-12-29T01:46:48;98783.25;;;8.14;95.17
60871;BME280;46714;50.118;14.462;2023-12-29T01:49:15;98776.56;;;8.10;95.26
60871;BME280;46714;50.118;14.462;2023-12-29T01:51:44;98774.03;;;8.08;95.32
60871;BME280;46714;50.118;14.462;2023-12-29T01:54:15;98771.56;;;8.07;95.95
60871;BME280;46714;50.118;14.462;2023-12-29T01:56:42;98779.69;;;8.07;96.21
60871;BME280;46714;50.118;14.462;2023-12-29T01:59:08;98776.13;;;8.06;96.68
60871;BME280;46714;50.118;14.462;2023-12-29T02:01:34;98777.81;;;8.07;97.08
60871;BME280;46714;50.118;14.462;2023-12-29T02:04:00;98770.94;;;8.11;97.68
60871;BME280;46714;50.118;14.462;2023-12-29T02:06:26;98773.22;;;8.14;96.74
60871;BME280;46714;50.118;14.462;2023-12-29T02:08:52;98773.41;;;8.19;97.54
60871;BME280;46714;50.118;14.462;2023-12-29T02:11:18;98771.13;;;8.23;97.15
60871;BME280;46714;50.118;14.462;2023-12-29T02:13:43;98768.00;;;8.26;97.53
60871;BME280;46714;50.118;14.462;2023-12-29T02:16:12;98762.19;;;8.29;96.80
60871;BME280;46714;50.118;14.462;2023-12-29T02:18:44;98760.91;;;8.32;97.71
60871;BME280;46714;50.118;14.462;2023-12-29T02:21:12;98750.28;;;8.30;97.48
60871;BME280;46714;50.118;14.462;2023-12-29T02:23:38;98738.38;;;8.31;97.69
60871;BME280;46714;50.118;14.462;2023-12-29T02:26:05;98740.47;;;8.29;96.86
60871;BME280;46714;50.118;14.462;2023-12-29T02:28:34;98747.38;;;8.25;97.64
60871;BME280;46714;50.118;14.462;2023-12-29T02:31:10;98744.22;;;8.22;97.67
60871;BME280;46714;50.118;14.462;2023-12-29T02:33:41;98750.06;;;8.18;97.50
60871;BME280;46714;50.118;14.462;2023-12-29T02:36:09;98736.31;;;8.13;98.42
60871;BME280;46714;50.118;14.462;2023-12-29T02:38:37;98730.91;;;8.13;98.15
60871;BME280;46714;50.118;14.462;2023-12-29T02:41:03;98733.00;;;8.11;98.67
60871;BME280;46714;50.118;14.462;2023-12-29T02:43:30;98740.28;;;8.11;98.43
60871;BME280;46714;50.118;14.462;2023-12-29T02:45:57;98733.81;;;8.12;98.82
60871;BME280;46714;50.118;14.462;2023-12-29T02:48:22;98727.56;;;8.11;98.69
60871;BME280;46714;50.118;14.462;2023-12-29T02:50:48;98714.00;;;8.11;98.79
60871;BME280;46714;50.118;14.462;2023-12-29T02:53:13;98712.97;;;8.12;98.79
60871;BME280;46714;50.118;14.462;2023-12-29T02:55:39;98723.16;;;8.10;98.71
60871;BME280;46714;50.118;14.462;2023-12-29T02:58:04;98727.56;;;8.11;99.34
60871;BME280;46714;50.118;14.462;2023-12-29T03:00:29;98719.19;;;8.13;98.70
60871;BME280;46714;50.118;14.462;2023-12-29T03:02:55;98717.13;;;8.15;98.97
60871;BME280;46714;50.118;14.462;2023-12-29T03:05:20;98711.31;;;8.11;98.86
60871;BME280;46714;50.118;14.462;2023-12-29T03:07:45;98722.78;;;8.13;98.52
60871;BME280;46714;50.118;14.462;2023-12-29T03:10:11;98711.69;;;8.15;98.60
60871;BME280;46714;50.118;14.462;2023-12-29T03:12:36;98703.56;;;8.15;99.05
60871;BME280;46714;50.118;14.462;2023-12-29T03:15:02;98701.72;;;8.15;98.74
60871;BME280;46714;50.118;14.462;2023-12-29T03:17:27;98691.69;;;8.16;98.71
60871;BME280;46714;50.118;14.462;2023-12-29T03:19:53;98692.72;;;8.15;98.66
60871;BME280;46714;50.118;14.462;2023-12-29T03:22:18;98693.97;;;8.12;98.65
60871;BME280;46714;50.118;14.462;2023-12-29T03:24:44;98694.41;;;8.09;97.94
60871;BME280;46714;50.118;14.462;2023-12-29T03:27:09;98686.91;;;8.05;98.76
60871;BME280;46714;50.118;14.462;2023-12-29T03:29:35;98679.41;;;8.00;98.46
60871;BME280;46714;50.118;14.462;2023-12-29T03:32:01;98679.22;;;7.95;98.83
60871;BME280;46714;50.118;14.462;2023-12-29T03:34:26;98675.25;;;7.91;98.29
60871;BME280;46714;50.118;14.462;2023-12-29T03:36:51;98672.13;;;7.87;98.53
60871;BME280;46714;50.118;14.462;2023-12-29T03:39:17;98667.56;;;7.81;99.11
60871;BME280;46714;50.118;14.462;2023-12-29T03:41:42;98663.34;;;7.79;99.48
60871;BME280;46714;50.118;14.462;2023-12-29T03:44:07;98658.16;;;7.77;99.77
60871;BME280;46714;50.118;14.462;2023-12-29T03:46:33;98645.03;;;7.74;99.67
60871;BME280;46714;50.118;14.462;2023-12-29T03:48:58;98655.25;;;7.72;99.51
60871;BME280;46714;50.118;14.462;2023-12-29T03:51:24;98652.13;;;7.68;99.24
60871;BME280;46714;50.118;14.462;2023-12-29T03:53:49;98659.63;;;7.66;99.68
60871;BME280;46714;50.118;14.462;2023-12-29T03:56:15;98655.25;;;7.65;99.20
60871;BME280;46714;50.118;14.462;2023-12-29T03:58:42;98660.06;;;7.63;99.77
60871;BME280;46714;50.118;14.462;2023-12-29T04:01:11;98652.94;;;7.62;99.90
60871;BME280;46714;50.118;14.462;2023-12-29T04:03:40;98641.72;;;7.59;99.65
60871;BME280;46714;50.118;14.462;2023-12-29T04:06:06;98646.91;;;7.53;99.34
60871;BME280;46714;50.118;14.462;2023-12-29T04:08:33;98645.66;;;7.49;100.00
60871;BME280;46714;50.118;14.462;2023-12-29T04:10:58;98631.06;;;7.44;100.00
60871;BME280;46714;50.118;14.462;2023-12-29T04:13:24;98630.66;;;7.40;100.00
60871;BME280;46714;50.118;14.462;2023-12-29T04:15:49;98624.81;;;7.37;100.00
60871;BME280;46714;50.118;14.462;2023-12-29T04:18:14;98630.44;;;7.35;100.00
60871;BME280;46714;50.118;14.462;2023-12-29T04:20:40;98618.78;;;7.34;100.00
60871;BME280;46714;50.118;14.462;2023-12-29T04:23:06;98607.56;;;7.38;100.00
60871;BME280;46714;50.118;14.462;2023-12-29T04:25:32;98612.09;;;7.37;100.00
60871;BME280;46714;50.118;14.462;2023-12-29T04:27:58;98604.63;;;7.39;100.00
60871;BME280;46714;50.118;14.462;2023-12-29T04:30:23;98602.97;;;7.38;100.00
60871;BME280;46714;50.118;14.462;2023-12-29T04:32:49;98585.25;;;7.36;100.00
60871;BME280;46714;50.118;14.462;2023-12-29T04:35:15;98579.00;;;7.35;100.00
60871;BME280;46714;50.118;14.462;2023-12-29T04:37:40;98585.25;;;7.36;100.00
60871;BME280;46714;50.118;14.462;2023-12-29T04:40:07;98575.88;;;7.38;100.00
60871;BME280;46714;50.118;14.462;2023-12-29T04:42:33;98588.38;;;7.39;100.00
60871;BME280;46714;50.118;14.462;2023-12-29T04:44:58;98585.66;;;7.46;100.00
60871;BME280;46714;50.118;14.462;2023-12-29T04:47:24;98581.69;;;7.48;100.00
60871;BME280;46714;50.118;14.462;2023-12-29T04:49:49;98592.72;;;7.53;100.00
60871;BME280;46714;50.118;14.462;2023-12-29T04:52:14;98598.38;;;7.52;99.60
60871;BME280;46714;50.118;14.462;2023-12-29T04:54:40;98600.03;;;7.53;99.72
60871;BME280;46714;50.118;14.462;2023-12-29T04:57:05;98599.63;;;7.49;99.99
60871;BME280;46714;50.118;14.462;2023-12-29T04:59:30;98612.13;;;7.44;99.49
60871;BME280;46714;50.118;14.462;2023-12-29T05:01:56;98622.94;;;7.37;99.75
60871;BME280;46714;50.118;14.462;2023-12-29T05:04:21;98621.91;;;7.31;100.00
60871;BME280;46714;50.118;14.462;2023-12-29T05:06:47;98618.13;;;7.26;100.00
60871;BME280;46714;50.118;14.462;2023-12-29T05:09:12;98627.09;;;7.20;100.00
60871;BME280;46714;50.118;14.462;2023-12-29T05:11:38;98616.47;;;7.11;100.00
60871;BME280;46714;50.118;14.462;2023-12-29T05:14:04;98622.69;;;7.05;100.00
60871;BME280;46714;50.118;14.462;2023-12-29T05:16:29;98617.06;;;7.00;100.00
60871;BME280;46714;50.118;14.462;2023-12-29T05:18:55;98622.28;;;6.95;100.00
60871;BME280;46714;50.118;14.462;2023-12-29T05:21:20;98621.44;;;6.88;100.00
60871;BME280;46714;50.118;14.462;2023-12-29T05:23:46;98611.00;;;6.85;100.00
60871;BME280;46714;50.118;14.462;2023-12-29T05:26:13;98609.75;;;6.81;100.00
60871;BME280;46714;50.118;14.462;2023-12-29T05:28:39;98617.47;;;6.84;100.00
60871;BME280;46714;50.118;14.462;2023-12-29T05:31:04;98614.34;;;6.87;100.00
60871;BME280;46714;50.118;14.462;2023-12-29T05:33:30;98612.09;;;7.04;100.00
60871;BME280;46714;50.118;14.462;2023-12-29T05:35:56;98609.81;;;7.21;100.00
60871;BME280;46714;50.118;14.462;2023-12-29T05:38:21;98606.09;;;7.28;100.00
60871;BME280;46714;50.118;14.462;2023-12-29T05:40:47;98606.50;;;7.39;100.00
60871;BME280;46714;50.118;14.462;2023-12-29T05:43:12;98607.75;;;7.49;100.00
60871;BME280;46714;50.118;14.462;2023-12-29T05:45:37;98612.13;;;7.57;98.92
60871;BME280;46714;50.118;14.462;2023-12-29T05:48:03;98603.56;;;7.67;98.34
60871;BME280;46714;50.118;14.462;2023-12-29T05:50:28;98596.50;;;7.72;97.68
60871;BME280;46714;50.118;14.462;2023-12-29T05:52:54;98617.09;;;7.80;97.10
60871;BME280;46714;50.118;14.462;2023-12-29T05:55:19;98606.44;;;7.85;96.62
60871;BME280;46714;50.118;14.462;2023-12-29T05:57:44;98621.25;;;7.89;95.97
60871;BME280;46714;50.118;14.462;2023-12-29T06:00:10;98611.03;;;7.91;96.25
60871;BME280;46714;50.118;14.462;2023-12-29T06:02:39;98617.28;;;7.92;96.44
60871;BME280;46714;50.118;14.462;2023-12-29T06:05:06;98617.47;;;7.97;95.52
60871;BME280;46714;50.118;14.462;2023-12-29T06:07:33;98615.59;;;8.04;95.43
60871;BME280;46714;50.118;14.462;2023-12-29T06:09:58;98597.66;;;8.10;94.79
60871;BME280;46714;50.118;14.462;2023-12-29T06:12:24;98599.94;;;8.13;94.67
60871;BME280;46714;50.118;14.462;2023-12-29T06:14:49;98592.00;;;8.18;94.35
60871;BME280;46714;50.118;14.462;2023-12-29T06:17:15;98602.41;;;8.21;93.95
60871;BME280;46714;50.118;14.462;2023-12-29T06:19:40;98606.19;;;8.20;93.72
60871;BME280;46714;50.118;14.462;2023-12-29T06:22:06;98599.28;;;8.17;93.62
60871;BME280;46714;50.118;14.462;2023-12-29T06:24:36;98592.63;;;8.20;93.65
60871;BME280;46714;50.118;14.462;2023-12-29T06:27:02;98595.53;;;8.25;94.52
60871;BME280;46714;50.118;14.462;2023-12-29T06:29:27;98592.41;;;8.22;93.80
60871;BME280;46714;50.118;14.462;2023-12-29T06:31:53;98592.63;;;8.20;94.46
60871;BME280;46714;50.118;14.462;2023-12-29T06:34:18;98593.66;;;8.19;93.79
60871;BME280;46714;50.118;14.462;2023-12-29T06:36:44;98602.22;;;8.16;94.46
60871;BME280;46714;50.118;14.462;2023-12-29T06:39:09;98597.44;;;8.11;94.73
60871;BME280;46714;50.118;14.462;2023-12-29T06:41:34;98605.34;;;8.06;94.11
60871;BME280;46714;50.118;14.462;2023-12-29T06:44:00;98603.72;;;8.05;93.91
60871;BME280;46714;50.118;14.462;2023-12-29T06:46:25;98607.47;;;8.04;93.84
60871;BME280;46714;50.118;14.462;2023-12-29T06:48:50;98602.44;;;8.08;93.41
60871;BME280;46714;50.118;14.462;2023-12-29T06:51:19;98609.56;;;8.09;93.22
60871;BME280;46714;50.118;14.462;2023-12-29T06:53:45;98621.41;;;8.08;93.31
60871;BME280;46714;50.118;14.462;2023-12-29T06:56:17;98619.53;;;8.08;92.95
60871;BME280;46714;50.118;14.462;2023-12-29T06:58:43;98625.59;;;8.10;92.44
60871;BME280;46714;50.118;14.462;2023-12-29T07:01:09;98623.28;;;8.14;92.54
60871;BME280;46714;50.118;14.462;2023-12-29T07:03:35;98621.22;;;8.16;91.64
60871;BME280;46714;50.118;14.462;2023-12-29T07:06:00;98624.53;;;8.18;91.64
60871;BME280;46714;50.118;14.462;2023-12-29T07:08:26;98629.72;;;8.19;91.58
60871;BME280;46714;50.118;14.462;2023-12-29T07:10:52;98630.59;;;8.20;91.51
60871;BME280;46714;50.118;14.462;2023-12-29T07:13:17;98625.56;;;8.24;91.57
60871;BME280;46714;50.118;14.462;2023-12-29T07:15:44;98618.88;;;8.26;91.33
60871;BME280;46714;50.118;14.462;2023-12-29T07:18:09;98622.19;;;8.28;91.25
60871;BME280;46714;50.118;14.462;2023-12-29T07:20:35;98614.03;;;8.35;90.84
60871;BME280;46714;50.118;14.462;2023-12-29T07:23:00;98612.41;;;8.34;91.05
60871;BME280;46714;50.118;14.462;2023-12-29T07:25:26;98622.19;;;8.35;90.63
60871;BME280;46714;50.118;14.462;2023-12-29T07:27:51;98624.69;;;8.36;90.95
60871;BME280;46714;50.118;14.462;2023-12-29T07:30:17;98626.53;;;8.36;90.84
60871;BME280;46714;50.118;14.462;2023-12-29T07:32:43;98627.81;;;8.33;91.37
60871;BME280;46714;50.118;14.462;2023-12-29T07:35:08;98624.47;;;8.31;91.60
60871;BME280;46714;50.118;14.462;2023-12-29T07:37:34;98624.47;;;8.31;91.11
60871;BME280;46714;50.118;14.462;2023-12-29T07:39:59;98626.97;;;8.33;91.38
60871;BME280;46714;50.118;14.462;2023-12-29T07:42:25;98630.75;;;8.32;90.55
60871;BME280;46714;50.118;14.462;2023-12-29T07:44:50;98635.31;;;8.31;91.09
60871;BME280;46714;50.118;14.462;2023-12-29T07:47:16;98639.09;;;8.30;91.21
60871;BME280;46714;50.118;14.462;2023-12-29T07:49:42;98632.03;;;8.29;90.74
60871;BME280;46714;50.118;14.462;2023-12-29T07:52:07;98633.88;;;8.29;90.20
60871;BME280;46714;50.118;14.462;2023-12-29T07:54:33;98630.97;;;8.30;90.14
60871;BME280;46714;50.118;14.462;2023-12-29T07:56:58;98639.91;;;8.31;89.81
60871;BME280;46714;50.118;14.462;2023-12-29T07:59:24;98639.72;;;8.32;89.74
60871;BME280;46714;50.118;14.462;2023-12-29T08:01:49;98635.94;;;8.33;89.29
60871;BME280;46714;50.118;14.462;2023-12-29T08:04:15;98638.47;;;8.35;89.48
60871;BME280;46714;50.118;14.462;2023-12-29T08:06:40;98649.50;;;8.33;89.51
60871;BME280;46714;50.118;14.462;2023-12-29T08:09:06;98656.81;;;8.33;88.38
60871;BME280;46714;50.118;14.462;2023-12-29T08:11:33;98662.69;;;8.30;88.36
60871;BME280;46714;50.118;14.462;2023-12-29T08:13:59;98662.44;;;8.31;88.57
60871;BME280;46714;50.118;14.462;2023-12-29T08:16:24;98660.78;;;8.30;88.63
60871;BME280;46714;50.118;14.462;2023-12-29T08:18:50;98659.34;;;8.28;89.62
60871;BME280;46714;50.118;14.462;2023-12-29T08:21:21;98664.13;;;8.26;89.17
60871;BME280;46714;50.118;14.462;2023-12-29T08:23:47;98673.09;;;8.26;89.70
60871;BME280;46714;50.118;14.462;2023-12-29T08:26:13;98678.72;;;8.31;89.66
60871;BME280;46714;50.118;14.462;2023-12-29T08:28:39;98681.22;;;8.33;89.21
60871;BME280;46714;50.118;14.462;2023-12-29T08:31:06;98692.69;;;8.35;88.97
60871;BME280;46714;50.118;14.462;2023-12-29T08:33:34;98696.03;;;8.37;89.34
60871;BME280;46714;50.118;14.462;2023-12-29T08:36:01;98703.34;;;8.36;88.70
60871;BME280;46714;50.118;14.462;2023-12-29T08:38:28;98702.06;;;8.39;88.22
60871;BME280;46714;50.118;14.462;2023-12-29T08:40:54;98692.91;;;8.40;87.83
60871;BME280;46714;50.118;14.462;2023-12-29T08:43:21;98701.69;;;8.42;87.29
60871;BME280;46714;50.118;14.462;2023-12-29T08:45:49;98701.69;;;8.42;88.13
60871;BME280;46714;50.118;14.462;2023-12-29T08:48:15;98705.63;;;8.39;88.17
60871;BME280;46714;50.118;14.462;2023-12-29T08:50:40;98710.88;;;8.41;87.87
60871;BME280;46714;50.118;14.462;2023-12-29T08:53:07;98718.16;;;8.41;87.15
60871;BME280;46714;50.118;14.462;2023-12-29T08:55:33;98713.34;;;8.43;87.25
60871;BME280;46714;50.118;14.462;2023-12-29T08:57:58;98717.75;;;8.44;86.42
60871;BME280;46714;50.118;14.462;2023-12-29T09:00:23;98711.69;;;8.48;85.76
60871;BME280;46714;50.118;14.462;2023-12-29T09:02:49;98705.41;;;8.54;85.26
60871;BME280;46714;50.118;14.462;2023-12-29T09:05:14;98722.09;;;8.58;85.80
60871;BME280;46714;50.118;14.462;2023-12-29T09:07:40;98725.41;;;8.60;86.33
60871;BME280;46714;50.118;14.462;2023-12-29T09:10:05;98726.66;;;8.64;85.10
60871;BME280;46714;50.118;14.462;2023-12-29T09:12:33;98715.38;;;8.67;85.77
60871;BME280;46714;50.118;14.462;2023-12-29T09:14:59;98724.97;;;8.70;85.92
60871;BME280;46714;50.118;14.462;2023-12-29T09:17:24;98736.00;;;8.75;85.11
60871;BME280;46714;50.118;14.462;2023-12-29T09:19:50;98725.38;;;8.80;85.05
60871;BME280;46714;50.118;14.462;2023-12-29T09:22:15;98723.66;;;8.86;84.68
60871;BME280;46714;50.118;14.462;2023-12-29T09:24:41;98715.31;;;8.87;85.62
60871;BME280;46714;50.118;14.462;2023-12-29T09:27:07;98726.78;;;8.89;85.27
60871;BME280;46714;50.118;14.462;2023-12-29T09:29:33;98724.47;;;8.93;85.49
60871;BME280;46714;50.118;14.462;2023-12-29T09:31:58;98729.88;;;8.99;85.04
60871;BME280;46714;50.118;14.462;2023-12-29T09:34:23;98717.53;;;9.04;85.17
60871;BME280;46714;50.118;14.462;2023-12-29T09:36:49;98730.25;;;9.10;84.49
60871;BME280;46714;50.118;14.462;2023-12-29T09:39:14;98739.41;;;9.15;82.80
60871;BME280;46714;50.118;14.462;2023-12-29T09:41:42;98739.38;;;9.22;82.67
60871;BME280;46714;50.118;14.462;2023-12-29T09:44:14;98733.72;;;9.30;81.97
60871;BME280;46714;50.118;14.462;2023-12-29T09:46:41;98735.78;;;9.35;81.83
60871;BME280;46714;50.118;14.462;2023-12-29T09:49:07;98734.25;;;9.39;81.26
60871;BME280;46714;50.118;14.462;2023-12-29T09:51:34;98737.19;;;9.44;80.38
60871;BME280;46714;50.118;14.462;2023-12-29T09:54:01;98730.84;;;9.50;79.87
60871;BME280;46714;50.118;14.462;2023-12-29T09:56:27;98739.41;;;9.54;80.55
60871;BME280;46714;50.118;14.462;2023-12-29T09:58:53;98730.00;;;9.56;79.90
60871;BME280;46714;50.118;14.462;2023-12-29T10:01:19;98723.50;;;9.57;80.38
60871;BME280;46714;50.118;14.462;2023-12-29T10:03:47;98733.53;;;9.57;80.23
60871;BME280;46714;50.118;14.462;2023-12-29T10:06:14;98736.66;;;9.60;80.42
60871;BME280;46714;50.118;14.462;2023-12-29T10:08:45;98728.28;;;9.62;80.13
60871;BME280;46714;50.118;14.462;2023-12-29T10:11:11;98721.59;;;9.64;80.19
60871;BME280;46714;50.118;14.462;2023-12-29T10:13:40;98719.25;;;9.68;78.97
60871;BME280;46714;50.118;14.462;2023-12-29T10:16:13;98717.75;;;9.72;79.08
60871;BME280;46714;50.118;14.462;2023-12-29T10:19:00;98713.75;;;9.75;79.00
60871;BME280;46714;50.118;14.462;2023-12-29T10:21:57;98705.56;;;9.81;78.00
60871;BME280;46714;50.118;14.462;2023-12-29T10:24:32;98691.91;;;9.88;78.31
60871;BME280;46714;50.118;14.462;2023-12-29T10:26:59;98692.06;;;9.93;77.54
60871;BME280;46714;50.118;14.462;2023-12-29T10:29:25;98703.56;;;9.95;76.58
60871;BME280;46714;50.118;14.462;2023-12-29T10:31:52;98707.72;;;9.98;75.93
60871;BME280;46714;50.118;14.462;2023-12-29T10:34:19;98699.78;;;9.96;75.81
60871;BME280;46714;50.118;14.462;2023-12-29T10:36:47;98714.22;;;9.97;76.55
60871;BME280;46714;50.118;14.462;2023-12-29T10:39:14;98700.84;;;9.95;76.33
60871;BME280;46714;50.118;14.462;2023-12-29T10:41:40;98687.25;;;9.95;77.18
60871;BME280;46714;50.118;14.462;2023-12-29T10:44:08;98690.59;;;9.97;76.45
60871;BME280;46714;50.118;14.462;2023-12-29T10:46:34;98686.59;;;10.00;77.20
60871;BME280;46714;50.118;14.462;2023-12-29T10:49:09;98685.31;;;10.02;76.22
60871;BME280;46714;50.118;14.462;2023-12-29T10:51:35;98666.88;;;10.04;76.41
60871;BME280;46714;50.118;14.462;2023-12-29T10:54:02;98675.03;;;10.04;76.73
60871;BME280;46714;50.118;14.462;2023-12-29T10:56:28;98659.78;;;10.03;76.46
60871;BME280;46714;50.118;14.462;2023-12-29T10:59:04;98668.16;;;10.02;76.13
60871;BME280;46714;50.118;14.462;2023-12-29T11:01:30;98661.28;;;9.99;75.98
60871;BME280;46714;50.118;14.462;2023-12-29T11:04:03;98664.44;;;9.96;76.37
60871;BME280;46714;50.118;14.462;2023-12-29T11:06:40;98658.41;;;9.94;76.15
60871;BME280;46714;50.118;14.462;2023-12-29T11:09:09;98663.00;;;9.94;77.30
60871;BME280;46714;50.118;14.462;2023-12-29T11:11:35;98656.13;;;9.91;76.28
60871;BME280;46714;50.118;14.462;2023-12-29T11:14:01;98659.91;;;9.90;76.50
60871;BME280;46714;50.118;14.462;2023-12-29T11:16:27;98657.19;;;9.90;76.43
60871;BME280;46714;50.118;14.462;2023-12-29T11:18:54;98652.56;;;9.91;77.31
60871;BME280;46714;50.118;14.462;2023-12-29T11:21:21;98655.28;;;9.91;76.66
60871;BME280;46714;50.118;14.462;2023-12-29T11:23:48;98655.28;;;9.91;76.81
60871;BME280;46714;50.118;14.462;2023-12-29T11:26:13;98651.50;;;9.92;76.60
60871;BME280;46714;50.118;14.462;2023-12-29T11:28:39;98658.63;;;9.93;76.24
60871;BME280;46714;50.118;14.462;2023-12-29T11:31:06;98649.19;;;9.95;76.44
60871;BME280;46714;50.118;14.462;2023-12-29T11:33:35;98653.13;;;9.99;76.81
60871;BME280;46714;50.118;14.462;2023-12-29T11:43:44;98641.81;;;10.21;74.93
60871;BME280;46714;50.118;14.462;2023-12-29T11:49:05;98622.53;;;10.29;74.37
60871;BME280;46714;50.118;14.462;2023-12-29T11:53:58;98624.94;;;10.37;74.17
60871;BME280;46714;50.118;14.462;2023-12-29T11:56:24;98626.34;;;10.40;74.08
60871;BME280;46714;50.118;14.462;2023-12-29T11:58:49;98619.66;;;10.42;74.62
60871;BME280;46714;50.118;14.462;2023-12-29T12:07:15;98620.25;;;10.63;71.61
60871;BME280;46714;50.118;14.462;2023-12-29T12:09:42;98619.56;;;10.67;71.76
60871;BME280;46714;50.118;14.462;2023-12-29T12:12:09;98610.47;;;10.74;71.02
60871;BME280;46714;50.118;14.462;2023-12-29T12:14:50;98598.88;;;10.78;71.42
60871;BME280;46714;50.118;14.462;2023-12-29T12:17:26;98600.91;;;10.83;71.30
60871;BME280;46714;50.118;14.462;2023-12-29T12:19:57;98598.19;;;10.83;71.28
60871;BME280;46714;50.118;14.462;2023-12-29T12:22:24;98599.88;;;10.84;72.00
60871;BME280;46714;50.118;14.462;2023-12-29T12:24:57;98599.00;;;10.83;72.56
60871;BME280;46714;50.118;14.462;2023-12-29T12:27:24;98591.91;;;10.82;73.41
60871;BME280;46714;50.118;14.462;2023-12-29T12:29:54;98589.19;;;10.82;73.91
60871;BME280;46714;50.118;14.462;2023-12-29T12:32:27;98583.63;;;10.77;73.67
60871;BME280;46714;50.118;14.462;2023-12-29T12:34:53;98581.94;;;10.76;74.53
60871;BME280;46714;50.118;14.462;2023-12-29T12:37:19;98585.75;;;10.75;74.21
60871;BME280;46714;50.118;14.462;2023-12-29T12:39:55;98587.25;;;10.71;74.92
60871;BME280;46714;50.118;14.462;2023-12-29T12:42:21;98586.03;;;10.67;74.55
60871;BME280;46714;50.118;14.462;2023-12-29T12:47:52;98584.63;;;10.64;75.76
60871;BME280;46714;50.118;14.462;2023-12-29T12:50:20;98579.41;;;10.63;74.92
60871;BME280;46714;50.118;14.462;2023-12-29T12:52:45;98576.69;;;10.63;74.68
60871;BME280;46714;50.118;14.462;2023-12-29T12:55:11;98578.22;;;10.59;75.36
60871;BME280;46714;50.118;14.462;2023-12-29T12:57:39;98580.19;;;10.52;75.82
60871;BME280;46714;50.118;14.462;2023-12-29T13:00:05;98567.03;;;10.48;75.26
60871;BME280;46714;50.118;14.462;2023-12-29T13:02:31;98575.06;;;10.43;75.10
60871;BME280;46714;50.118;14.462;2023-12-29T13:04:58;98573.63;;;10.41;75.44
60871;BME280;46714;50.118;14.462;2023-12-29T13:07:24;98574.44;;;10.41;75.95
60871;BME280;46714;50.118;14.462;2023-12-29T13:09:49;98574.66;;;10.40;75.86
60871;BME280;46714;50.118;14.462;2023-12-29T13:12:16;98569.69;;;10.37;75.41
60871;BME280;46714;50.118;14.462;2023-12-29T13:14:42;98576.41;;;10.34;73.67
60871;BME280;46714;50.118;14.462;2023-12-29T13:17:09;98577.25;;;10.35;73.59